Time;durP1;ratioP1;P1;durP2;ratioP2;P2;SDS_P1;SDS_P2;PMS_P1;PMS_P2;Temp;Humidity;BMP_temperature;BMP_pressure;BME280_temperature;BME280_humidity;BME280_pressure;Samples;Min_cycle;Max_cycle;Signal;HPM_P1;HPM_P2
2023/07/08 00:00:19;;;;;;;;;19.00;16.67;;;;;27.00;39.77;100728.78;5070496;28;45360;-71
2023/07/08 00:02:45;;;;;;;;;12.67;12.00;;;;;26.97;39.87;100724.28;5072338;28;45475;-74
2023/07/08 00:05:12;;;;;;;;;12.67;11.67;;;;;26.84;39.78;100702.00;5074367;28;45310;-73
2023/07/08 00:07:39;;;;;;;;;13.33;13.00;;;;;26.79;39.77;100698.53;5065475;28;45326;-73
2023/07/08 00:10:18;;;;;;;;;8.33;8.33;;;;;26.92;39.96;100728.19;5073635;27;45392;-72
2023/07/08 00:12:45;;;;;;;;;13.00;12.67;;;;;26.84;39.83;100723.03;5072842;27;46306;-72
2023/07/08 00:15:11;;;;;;;;;10.33;9.33;;;;;26.78;40.07;100718.72;5060540;28;45521;-71
2023/07/08 00:17:37;;;;;;;;;15.00;14.33;;;;;26.83;39.72;100740.47;5052728;28;48005;-72
2023/07/08 00:20:31;;;;;;;;;16.67;12.67;;;;;26.85;39.86;100747.66;5071213;27;45667;-71
2023/07/08 00:22:57;;;;;;;;;15.67;13.33;;;;;26.78;40.51;100731.53;5075022;28;45527;-71
2023/07/08 00:25:23;;;;;;;;;13.00;10.00;;;;;26.79;40.15;100736.03;5073679;28;45297;-70
2023/07/08 00:27:48;;;;;;;;;17.67;14.33;;;;;26.82;40.01;100749.63;5072859;28;45372;-72
2023/07/08 00:30:30;;;;;;;;;14.67;11.67;;;;;26.79;40.13;100747.88;5076512;28;45319;-72
2023/07/08 00:32:56;;;;;;;;;13.00;10.00;;;;;26.64;40.04;100727.50;5071834;27;45651;-72
2023/07/08 00:35:44;;;;;;;;;13.33;11.33;;;;;26.79;40.03;100749.75;5058364;28;45587;-71
2023/07/08 00:38:21;;;;;;;;;10.67;10.67;;;;;26.77;40.10;100743.44;5064874;28;45627;-70
2023/07/08 00:40:49;;;;;;;;;10.00;10.00;;;;;26.77;40.32;100758.03;5076985;27;45555;-72
2023/07/08 00:43:14;;;;;;;;;12.00;9.00;;;;;26.77;40.10;100757.16;5076904;27;45464;-70
2023/07/08 00:45:53;;;;;;;;;11.67;9.67;;;;;26.76;39.81;100766.31;5053426;28;45466;-72
2023/07/08 00:48:45;;;;;;;;;12.00;9.00;;;;;26.75;40.11;100765.44;5076529;28;46280;-71
2023/07/08 00:51:12;;;;;;;;;11.00;8.33;;;;;26.75;40.18;100761.81;5053204;28;45344;-73
2023/07/08 00:53:38;;;;;;;;;11.67;10.67;;;;;26.71;39.62;100761.00;5076561;27;45302;-72
2023/07/08 00:56:06;;;;;;;;;12.00;10.67;;;;;26.74;39.75;100760.00;5066669;27;45724;-72
2023/07/08 00:59:00;;;;;;;;;21.00;14.00;;;;;26.69;39.82;100754.72;5076241;27;45459;-71
2023/07/08 01:01:28;;;;;;;;;14.67;12.00;;;;;26.70;39.49;100758.38;5058730;28;45771;-71
2023/07/08 01:04:01;;;;;;;;;19.67;16.67;;;;;26.65;39.69;100747.59;5076282;28;45489;-70
2023/07/08 01:06:31;;;;;;;;;14.00;13.00;;;;;26.62;39.81;100745.81;5069759;27;45381;-72
2023/07/08 01:09:02;;;;;;;;;25.00;21.33;;;;;26.48;39.43;100713.50;5076529;27;46230;-70
2023/07/08 01:11:29;;;;;;;;;19.00;17.00;;;;;26.68;39.61;100750.19;5058059;27;45911;-72
2023/07/08 01:13:55;;;;;;;;;19.00;13.33;;;;;26.67;39.50;100753.88;5075656;28;45466;-72
2023/07/08 01:16:22;;;;;;;;;19.67;15.33;;;;;26.56;39.60;100743.31;5076110;27;45592;-71
2023/07/08 01:18:52;;;;;;;;;14.33;14.00;;;;;26.56;39.90;100751.53;5075350;28;46483;-71
2023/07/08 01:21:35;;;;;;;;;25.00;20.33;;;;;26.62;39.76;100775.97;5069593;27;45418;-71
2023/07/08 01:24:03;;;;;;;;;32.00;23.50;;;;;26.51;39.89;100761.78;5076762;28;45281;-70
2023/07/08 01:26:31;;;;;;;;;62.25;43.50;;;;;26.54;39.71;100766.25;5064314;28;45495;-71
2023/07/08 01:28:57;;;;;;;;;61.00;45.50;;;;;26.52;40.13;100755.38;5075265;27;45384;-71
2023/07/08 01:31:23;;;;;;;;;65.25;47.75;;;;;26.54;40.21;100749.81;5051066;28;45656;-72
2023/07/08 01:33:50;;;;;;;;;60.00;45.75;;;;;26.53;40.03;100759.00;5076009;27;45431;-70
2023/07/08 01:36:17;;;;;;;;;43.50;29.75;;;;;26.52;40.07;100758.09;5076072;28;45536;-71
2023/07/08 01:38:44;;;;;;;;;32.00;28.75;;;;;26.44;40.14;100744.69;5074248;28;46237;-71
2023/07/08 01:41:16;;;;;;;;;32.25;30.00;;;;;26.50;40.20;100760.03;5057823;28;45478;-72
2023/07/08 01:43:41;;;;;;;;;27.67;23.00;;;;;26.48;40.18;100767.38;5070302;28;45579;-72
2023/07/08 01:46:14;;;;;;;;;25.33;19.33;;;;;26.47;40.28;100785.69;5075797;27;45662;-72
2023/07/08 01:48:43;;;;;;;;;17.33;17.33;;;;;26.46;40.29;100791.22;5075450;28;46047;-71
2023/07/08 01:51:08;;;;;;;;;15.00;13.00;;;;;26.21;40.27;100799.50;5075431;27;45425;-72
2023/07/08 01:53:37;;;;;;;;;22.67;17.00;;;;;26.42;40.66;100885.44;5062556;28;45575;-71
2023/07/08 01:56:04;;;;;;;;;11.33;10.33;;;;;26.33;41.02;100880.31;5072039;27;45837;-72
2023/07/08 01:58:29;;;;;;;;;13.67;9.33;;;;;26.30;41.16;100881.34;5057215;28;47374;-71
2023/07/08 02:00:55;;;;;;;;;10.00;10.00;;;;;26.22;41.07;100876.13;5075912;27;45473;-71
2023/07/08 02:03:21;;;;;;;;;9.67;8.33;;;;;26.26;41.23;100880.53;5075981;27;45474;-71
2023/07/08 02:05:47;;;;;;;;;6.67;6.67;;;;;26.13;41.41;100875.56;5076464;28;45375;-72
2023/07/08 02:08:12;;;;;;;;;11.00;9.67;;;;;26.24;41.31;100897.97;5075682;27;45619;-70
2023/07/08 02:10:40;;;;;;;;;8.33;6.33;;;;;26.16;41.98;100890.03;5067085;28;45457;-70
2023/07/08 02:13:05;;;;;;;;;15.00;14.33;;;;;26.10;42.40;100884.78;5070681;28;45550;-71
2023/07/08 02:15:31;;;;;;;;;8.67;7.33;;;;;25.99;42.43;100887.03;5071183;27;45859;-72
2023/07/08 02:17:57;;;;;;;;;9.67;7.67;;;;;26.01;42.79;100899.69;5070922;28;45373;-72
2023/07/08 02:20:22;;;;;;;;;11.00;8.00;;;;;25.86;43.02;100873.72;5075438;28;45346;-71
2023/07/08 02:22:48;;;;;;;;;8.00;8.00;;;;;25.97;43.24;100895.28;5068282;28;45405;-71
2023/07/08 02:25:14;;;;;;;;;9.33;7.00;;;;;25.94;43.83;100884.41;5055363;28;45656;-72
2023/07/08 02:27:39;;;;;;;;;8.00;6.33;;;;;25.91;43.92;100879.94;5065146;27;45484;-70
2023/07/08 02:30:06;;;;;;;;;6.00;6.00;;;;;25.80;44.33;100867.56;5068327;28;45366;-71
2023/07/08 02:32:34;;;;;;;;;9.00;6.00;;;;;25.72;45.11;100870.56;5057119;28;45404;-73
2023/07/08 02:35:00;;;;;;;;;4.00;3.67;;;;;25.53;45.29;100837.50;5064549;27;45492;-72
2023/07/08 02:37:26;;;;;;;;;7.00;4.00;;;;;25.52;45.69;100828.41;5057321;28;47349;-71
2023/07/08 02:39:52;;;;;;;;;5.00;5.00;;;;;25.56;45.57;100854.69;5074551;28;45344;-72
2023/07/08 02:42:17;;;;;;;;;3.67;3.67;;;;;25.56;45.87;100853.81;5070363;28;45415;-73
2023/07/08 02:44:42;;;;;;;;;2.00;2.00;;;;;25.46;46.08;100849.56;5070330;28;45476;-71
2023/07/08 02:47:08;;;;;;;;;4.00;3.00;;;;;25.47;46.12;100863.19;5075884;28;50058;-71
2023/07/08 02:49:33;;;;;;;;;2.00;2.00;;;;;25.38;46.17;100853.47;5070125;28;45405;-71
2023/07/08 02:51:59;;;;;;;;;2.33;2.33;;;;;25.31;46.53;100857.38;5056725;28;45512;-70
2023/07/08 02:54:25;;;;;;;;;4.67;2.67;;;;;25.28;46.95;100851.09;5075606;28;45474;-72
2023/07/08 02:56:52;;;;;;;;;2.00;2.00;;;;;25.26;46.54;100842.91;5056997;28;48490;-71
2023/07/08 02:59:17;;;;;;;;;3.00;2.00;;;;;25.20;47.04;100844.00;5074706;28;45402;-70
2023/07/08 03:01:42;;;;;;;;;3.33;2.67;;;;;25.18;47.21;100823.13;5066018;28;45543;-69
2023/07/08 03:04:12;;;;;;;;;4.33;2.33;;;;;25.19;47.21;100820.34;5074946;28;45412;-71
2023/07/08 03:06:38;;;;;;;;;1.33;1.33;;;;;25.02;46.82;100803.59;5075466;27;45779;-71
2023/07/08 03:09:04;;;;;;;;;8.00;5.33;;;;;24.96;47.69;100812.91;5054571;28;45919;-70
2023/07/08 03:11:29;;;;;;;;;6.00;4.00;;;;;25.08;47.14;100846.22;5069209;27;45415;-70
2023/07/08 03:13:55;;;;;;;;;4.00;1.67;;;;;25.01;47.63;100832.78;5074496;27;45285;-71
2023/07/08 03:16:21;;;;;;;;;2.00;2.00;;;;;24.93;47.15;100809.34;5071380;27;45819;-71
2023/07/08 03:18:46;;;;;;;;;1.00;1.00;;;;;25.04;47.73;100820.84;5054056;28;45527;-71
2023/07/08 03:21:17;;;;;;;;;5.67;3.00;;;;;25.05;47.12;100816.28;5069898;28;45436;-71
2023/07/08 03:23:43;;;;;;;;;2.33;2.33;;;;;24.97;47.12;100798.28;5072853;28;45558;-72
2023/07/08 03:26:18;;;;;;;;;2.00;2.00;;;;;24.95;47.33;100799.28;5068109;27;45327;-74
2023/07/08 03:28:44;;;;;;;;;1.67;1.67;;;;;24.97;47.22;100809.22;5064944;28;45188;-71
2023/07/08 03:31:10;;;;;;;;;2.33;1.33;;;;;24.95;47.00;100812.97;5074502;28;45424;-70
2023/07/08 03:33:36;;;;;;;;;1.00;1.00;;;;;24.94;46.74;100820.25;5069622;27;45691;-71
2023/07/08 03:36:02;;;;;;;;;3.00;2.00;;;;;24.94;47.05;100808.44;5076776;28;46602;-72
2023/07/08 03:38:28;;;;;;;;;5.00;2.00;;;;;24.97;46.63;100808.31;5074942;27;45389;-72
2023/07/08 03:40:53;;;;;;;;;2.33;1.00;;;;;24.99;46.60;100798.22;5054939;28;45595;-72
2023/07/08 03:43:18;;;;;;;;;1.00;1.00;;;;;24.95;46.72;100782.88;5065880;28;45487;-71
2023/07/08 03:45:45;;;;;;;;;2.67;1.33;;;;;24.88;46.15;100743.94;5073914;27;48953;-71
2023/07/08 03:48:11;;;;;;;;;1.67;1.00;;;;;25.02;46.36;100759.88;5071289;28;45368;-71
2023/07/08 03:50:37;;;;;;;;;3.00;3.00;;;;;25.04;46.67;100765.28;5071161;28;45634;-71
2023/07/08 03:53:02;;;;;;;;;1.00;1.00;;;;;25.00;46.31;100751.72;5073847;28;45481;-72
2023/07/08 03:55:28;;;;;;;;;3.67;3.00;;;;;25.10;45.89;100754.16;5073930;28;45935;-71
2023/07/08 03:57:54;;;;;;;;;3.33;2.33;;;;;25.05;46.17;100732.44;5050381;28;45805;-70
2023/07/08 04:00:20;;;;;;;;;4.00;2.67;;;;;25.14;45.99;100742.16;5059322;28;45494;-70
2023/07/08 04:02:46;;;;;;;;;4.00;2.33;;;;;25.16;46.19;100737.50;5064362;28;45590;-71
2023/07/08 04:05:19;;;;;;;;;1.00;1.00;;;;;25.12;46.38;100723.06;5069231;28;45452;-71
2023/07/08 04:07:45;;;;;;;;;2.00;2.00;;;;;25.16;45.77;100723.84;5072709;28;45441;-73
2023/07/08 04:10:11;;;;;;;;;5.00;3.67;;;;;25.17;45.79;100721.06;5068642;28;45318;-70
2023/07/08 04:12:36;;;;;;;;;2.33;1.67;;;;;25.18;46.09;100713.78;5074482;27;45368;-72
2023/07/08 04:15:02;;;;;;;;;3.33;3.33;;;;;25.18;46.12;100708.31;5073514;28;46225;-70
2023/07/08 04:17:28;;;;;;;;;1.00;1.00;;;;;24.92;45.28;100665.47;5055840;28;45843;-70
2023/07/08 04:19:56;;;;;;;;;11.00;4.00;;;;;25.15;45.80;100697.47;5074107;27;45448;-70
2023/07/08 04:22:22;;;;;;;;;1.33;1.33;;;;;25.18;45.86;100703.72;5071405;28;45643;-73
2023/07/08 04:24:47;;;;;;;;;2.00;2.00;;;;;25.16;45.19;100702.88;5074017;28;45625;-72
2023/07/08 04:27:15;;;;;;;;;2.00;2.00;;;;;25.13;45.16;100704.84;5074234;28;46168;-71
2023/07/08 04:29:41;;;;;;;;;1.00;1.00;;;;;25.06;45.54;100684.09;5049631;28;45405;-74
2023/07/08 04:32:07;;;;;;;;;1.67;1.67;;;;;25.15;45.66;100703.81;5074843;28;45369;-74
2023/07/08 04:34:32;;;;;;;;;2.33;2.33;;;;;25.06;45.19;100703.25;5074562;28;46087;-72
2023/07/08 04:36:57;;;;;;;;;1.00;1.00;;;;;25.12;45.25;100747.66;5075198;28;45472;-71
2023/07/08 04:39:23;;;;;;;;;12.00;12.00;;;;;24.98;45.72;100739.94;5066874;28;45499;-71
2023/07/08 04:41:48;;;;;;;;;4.00;2.67;;;;;24.99;45.72;100751.75;5065217;28;45537;-71
2023/07/08 04:44:14;;;;;;;;;4.00;4.00;;;;;25.04;45.40;100757.97;5050591;28;47125;-71
2023/07/08 04:46:44;;;;;;;;;1.67;1.67;;;;;25.05;45.57;100756.16;5073567;28;45421;-71
2023/07/08 04:49:10;;;;;;;;;4.00;3.00;;;;;24.98;45.05;100737.22;5073834;28;45493;-71
2023/07/08 04:51:36;;;;;;;;;1.33;1.33;;;;;25.00;44.96;100742.63;5055976;28;45314;-71
2023/07/08 04:54:02;;;;;;;;;3.67;2.33;;;;;25.05;44.97;100751.56;5073707;27;46195;-70
2023/07/08 04:56:45;;;;;;;;;1.00;1.00;;;;;25.04;45.18;100751.63;5063402;27;46297;-70
2023/07/08 04:59:14;;;;;;;;;5.00;2.00;;;;;25.10;45.03;100782.38;5061665;28;45317;-69
2023/07/08 05:01:40;;;;;;;;;5.67;2.33;;;;;25.10;44.98;100776.91;5065258;27;45505;-70
2023/07/08 05:04:06;;;;;;;;;3.00;2.00;;;;;25.13;45.10;100790.47;5052223;28;47234;-70
2023/07/08 05:06:33;;;;;;;;;4.00;2.00;;;;;25.16;45.12;100792.19;5072326;28;46026;-71
2023/07/08 05:09:00;;;;;;;;;1.00;1.00;;;;;25.16;44.70;100797.66;5054601;28;45503;-70
2023/07/08 05:11:26;;;;;;;;;3.00;2.00;;;;;25.13;45.45;100804.16;5064810;28;45380;-70
2023/07/08 05:13:52;;;;;;;;;3.33;3.33;;;;;25.16;45.16;100808.59;5076177;28;46912;-71
2023/07/08 05:16:18;;;;;;;;;1.00;1.00;;;;;25.15;45.27;100791.31;5076618;28;45433;-71
2023/07/08 05:18:44;;;;;;;;;1.00;1.00;;;;;25.18;45.22;100804.00;5077025;28;45413;-71
2023/07/08 05:21:10;;;;;;;;;3.00;3.00;;;;;25.16;44.98;100793.13;5063675;27;45587;-71
2023/07/08 05:23:35;;;;;;;;;6.00;2.00;;;;;25.13;44.92;100774.06;5076042;27;46532;-70
2023/07/08 05:26:03;;;;;;;;;2.00;2.00;;;;;25.10;44.88;100779.63;5076360;27;45326;-71
2023/07/08 05:28:29;;;;;;;;;1.67;1.67;;;;;25.25;44.95;100797.38;5068934;27;45404;-71
2023/07/08 05:30:55;;;;;;;;;4.67;3.00;;;;;25.29;44.77;100817.31;5076459;28;45290;-70
2023/07/08 05:33:22;;;;;;;;;6.00;4.00;;;;;25.26;44.79;100831.06;5076219;27;46412;-71
2023/07/08 05:35:47;;;;;;;;;1.67;1.00;;;;;25.27;45.07;100847.47;5058258;28;45551;-70
2023/07/08 05:38:12;;;;;;;;;4.00;2.00;;;;;25.25;45.39;100843.84;5076893;27;45575;-75
2023/07/08 05:40:38;;;;;;;;;1.33;1.33;;;;;25.30;45.15;100858.31;5076902;28;45459;-70
2023/07/08 05:43:03;;;;;;;;;2.00;2.00;;;;;25.28;45.39;100849.25;5076476;28;45326;-73
2023/07/08 05:45:29;;;;;;;;;2.33;2.00;;;;;25.34;45.36;100860.00;5073878;28;45619;-71
2023/07/08 05:47:54;;;;;;;;;3.33;1.00;;;;;25.33;45.26;100857.31;5054926;28;45736;-72
2023/07/08 05:50:19;;;;;;;;;9.00;8.00;;;;;25.42;45.15;100872.50;5057509;28;45425;-72
2023/07/08 05:52:45;;;;;;;;;1.00;1.00;;;;;25.45;45.13;100869.69;5056737;27;47859;-74
2023/07/08 05:55:10;;;;;;;;;2.33;2.00;;;;;25.48;44.83;100881.41;5054890;28;45590;-70
2023/07/08 05:57:35;;;;;;;;;2.33;2.33;;;;;25.47;44.85;100868.66;5076205;28;45643;-71
2023/07/08 06:00:01;;;;;;;;;4.00;3.00;;;;;25.51;44.90;100870.38;5075860;28;45523;-71
2023/07/08 06:02:28;;;;;;;;;2.00;2.00;;;;;25.49;44.89;100861.31;5075895;27;45939;-71
2023/07/08 06:04:53;;;;;;;;;2.00;2.00;;;;;25.55;44.59;100882.09;5055494;28;45599;-71
2023/07/08 06:07:18;;;;;;;;;4.00;2.00;;;;;25.55;44.69;100882.97;5074323;28;45515;-72
2023/07/08 06:09:44;;;;;;;;;6.00;6.00;;;;;25.48;45.12;100877.78;5076234;28;45454;-71
2023/07/08 06:12:10;;;;;;;;;3.00;3.00;;;;;25.57;44.96;100902.09;5076494;28;46861;-72
2023/07/08 06:14:35;;;;;;;;;3.00;3.00;;;;;25.57;45.29;100904.81;5067887;27;45301;-71
2023/07/08 06:17:01;;;;;;;;;3.00;3.00;;;;;25.40;44.80;100882.63;5075446;27;45468;-69
2023/07/08 06:19:26;;;;;;;;;6.00;5.67;;;;;25.61;45.22;100931.16;5075833;27;45282;-71
2023/07/08 06:21:51;;;;;;;;;4.00;3.00;;;;;25.45;45.26;100900.66;5043024;28;46285;-72
2023/07/08 06:24:17;;;;;;;;;4.00;2.00;;;;;25.66;45.55;100931.00;5044482;28;45425;-72
2023/07/08 06:26:42;;;;;;;;;5.33;4.00;;;;;25.66;44.99;100936.47;5044475;28;45447;-71
2023/07/08 06:29:08;;;;;;;;;2.67;2.00;;;;;25.63;45.14;100937.47;5074942;28;45499;-71
2023/07/08 06:31:33;;;;;;;;;4.33;3.00;;;;;25.54;45.00;100926.81;5062853;28;45746;-71
2023/07/08 06:34:01;;;;;;;;;3.00;3.00;;;;;25.62;45.46;100952.06;5075102;27;45385;-71
2023/07/08 06:36:27;;;;;;;;;6.00;3.00;;;;;25.63;46.37;100944.78;5070309;28;45504;-72
2023/07/08 06:38:52;;;;;;;;;5.00;3.00;;;;;25.50;46.17;100926.03;5074770;27;45551;-71
2023/07/08 06:41:17;;;;;;;;;3.67;3.67;;;;;25.67;46.50;100949.19;5075839;27;45552;-70
2023/07/08 06:43:43;;;;;;;;;3.00;3.00;;;;;25.66;46.22;100950.16;5075102;28;45484;-71
2023/07/08 06:46:08;;;;;;;;;2.67;2.67;;;;;25.60;46.32;100936.66;5072592;27;45467;-71
2023/07/08 06:48:33;;;;;;;;;2.00;2.00;;;;;25.71;45.85;100961.84;5057220;28;45587;-71
2023/07/08 06:50:59;;;;;;;;;3.00;3.00;;;;;25.78;46.10;100960.69;5071238;27;52338;-73
2023/07/08 06:53:24;;;;;;;;;2.00;2.00;;;;;25.73;46.00;100951.72;5068606;28;45287;-72
2023/07/08 06:55:50;;;;;;;;;3.00;3.00;;;;;25.85;46.29;100966.84;5074943;28;45445;-70
2023/07/08 06:58:15;;;;;;;;;2.00;2.00;;;;;25.84;46.12;100954.13;5075475;28;45483;-74
2023/07/08 07:00:45;;;;;;;;;4.00;4.00;;;;;25.90;46.24;100964.84;5074588;27;45768;-70
2023/07/08 07:03:12;;;;;;;;;3.33;3.33;;;;;25.83;45.60;100958.69;5074792;28;45566;-71
2023/07/08 07:05:37;;;;;;;;;3.33;3.33;;;;;25.93;45.42;100975.69;5072816;27;45339;-71
2023/07/08 07:08:04;;;;;;;;;3.67;2.33;;;;;25.72;45.35;100941.72;5068919;27;45247;-71
2023/07/08 07:10:30;;;;;;;;;5.67;4.00;;;;;25.96;45.08;100989.31;5054638;28;48148;-72
2023/07/08 07:12:56;;;;;;;;;2.00;2.00;;;;;25.94;45.29;100977.50;5068434;28;45545;-72
2023/07/08 07:15:21;;;;;;;;;3.67;2.67;;;;;25.97;45.14;100981.97;5056292;28;45498;-72
2023/07/08 07:17:46;;;;;;;;;2.67;2.67;;;;;26.07;44.37;100995.31;5069150;28;45903;-70
2023/07/08 07:20:12;;;;;;;;;5.00;2.00;;;;;26.06;44.31;100981.69;5062372;27;45664;-70
2023/07/08 07:22:38;;;;;;;;;2.00;2.00;;;;;26.11;43.88;100987.88;5062615;28;45380;-73
2023/07/08 07:25:04;;;;;;;;;4.00;2.00;;;;;26.19;43.82;100999.47;5070554;28;45361;-71
2023/07/08 07:27:30;;;;;;;;;2.00;2.00;;;;;26.24;43.61;101000.22;5065930;28;46409;-72
2023/07/08 07:29:59;;;;;;;;;3.00;2.67;;;;;26.32;43.35;100999.06;5070977;27;46135;-72
2023/07/08 07:32:25;;;;;;;;;7.00;5.33;;;;;26.25;43.45;100969.16;5069116;28;45352;-72
2023/07/08 07:34:51;;;;;;;;;3.00;3.00;;;;;26.41;43.23;100974.94;5074428;27;45502;-75
2023/07/08 07:37:19;;;;;;;;;4.00;3.00;;;;;26.45;43.01;100962.94;5070946;28;45508;-73
2023/07/08 07:39:45;;;;;;;;;3.67;3.67;;;;;26.62;43.22;100991.56;5057004;28;47046;-71
2023/07/08 07:42:11;;;;;;;;;3.00;2.67;;;;;26.64;42.79;100998.81;5071533;27;45439;-70
2023/07/08 07:44:39;;;;;;;;;3.00;3.00;;;;;26.64;42.52;100987.84;5072350;28;45316;-71
2023/07/08 07:47:05;;;;;;;;;8.00;3.00;;;;;26.83;42.53;100998.16;5071426;28;45839;-72
2023/07/08 07:49:31;;;;;;;;;4.00;4.00;;;;;26.93;42.58;100999.59;5076449;28;45443;-71
2023/07/08 07:51:57;;;;;;;;;3.00;3.00;;;;;27.02;42.62;100996.47;5076059;27;45279;-71
2023/07/08 07:54:22;;;;;;;;;4.33;3.00;;;;;27.09;42.44;100986.19;5077062;28;45464;-71
2023/07/08 07:56:47;;;;;;;;;5.33;4.00;;;;;27.20;42.11;100989.38;5074789;28;45381;-72
2023/07/08 07:59:13;;;;;;;;;3.00;3.00;;;;;27.30;42.35;100989.06;5074067;28;45654;-72
2023/07/08 08:01:39;;;;;;;;;3.33;3.33;;;;;27.28;42.12;100986.34;5069212;28;45591;-71
2023/07/08 08:04:04;;;;;;;;;4.00;4.00;;;;;27.35;42.02;100993.41;5068920;27;45438;-71
2023/07/08 08:06:30;;;;;;;;;4.00;4.00;;;;;27.44;42.17;101007.72;5070578;28;45648;-75
2023/07/08 08:08:56;;;;;;;;;2.67;1.33;;;;;27.48;41.76;101010.28;5076996;27;45612;-71
2023/07/08 08:11:22;;;;;;;;;3.33;3.33;;;;;27.56;41.35;101004.50;5068763;28;45434;-73
2023/07/08 08:13:47;;;;;;;;;4.00;3.00;;;;;27.64;41.55;101015.16;5063085;28;45512;-74
2023/07/08 08:16:12;;;;;;;;;3.00;3.00;;;;;27.74;41.72;101009.22;5073441;28;45445;-73
2023/07/08 08:18:38;;;;;;;;;4.67;4.67;;;;;27.82;41.29;101008.91;5075145;27;45398;-75
2023/07/08 08:21:03;;;;;;;;;5.00;4.67;;;;;27.80;41.04;100988.88;5074691;28;45429;-80
2023/07/08 08:23:28;;;;;;;;;4.33;4.33;;;;;27.97;41.38;101004.66;5075519;28;45820;-71
2023/07/08 08:25:54;;;;;;;;;5.33;3.67;;;;;28.00;41.15;101006.38;5057929;28;45345;-75
2023/07/08 08:28:19;;;;;;;;;7.33;4.00;;;;;28.05;40.89;101018.06;5074544;27;52873;-77
2023/07/08 08:30:49;;;;;;;;;8.67;5.00;;;;;28.09;40.75;101023.34;5062797;28;45311;-75
2023/07/08 08:33:15;;;;;;;;;4.33;4.33;;;;;28.09;40.64;101023.34;5062447;28;45497;-75
2023/07/08 08:35:42;;;;;;;;;7.67;4.33;;;;;28.18;40.41;101026.69;5056520;28;45378;-71
2023/07/08 08:38:07;;;;;;;;;3.00;3.00;;;;;28.25;40.86;101029.09;5075228;28;46198;-73
2023/07/08 08:40:33;;;;;;;;;4.67;4.33;;;;;28.28;40.38;101025.34;5079461;27;45575;-76
2023/07/08 08:43:03;;;;;;;;;2.33;2.33;;;;;28.39;40.44;101044.97;5073847;27;45513;-69
2023/07/08 08:45:34;;;;;;;;;6.33;3.33;;;;;28.41;40.49;101039.41;5056161;28;45638;-70
2023/07/08 08:48:03;;;;;;;;;5.33;3.67;;;;;28.46;40.20;101038.28;5059151;28;48530;-71
2023/07/08 08:50:50;;;;;;;;;3.00;3.00;;;;;28.48;40.14;101035.47;5054815;28;45652;-70
2023/07/08 08:53:21;;;;;;;;;4.67;3.33;;;;;28.46;40.20;101027.28;5056480;28;45367;-76
2023/07/08 08:55:54;;;;;;;;;4.00;4.00;;;;;28.49;40.42;101027.16;5063411;28;45505;-73
2023/07/08 08:59:02;;;;;;;;;3.67;3.67;;;;;28.60;40.48;101031.31;5077508;27;45456;-72
2023/07/08 09:01:28;;;;;;;;;4.00;4.00;;;;;28.61;40.13;101017.50;5069790;28;45366;-70
2023/07/08 09:04:23;;;;;;;;;4.33;4.33;;;;;28.73;40.17;101031.66;5058977;28;45582;-74
2023/07/08 09:06:50;;;;;;;;;4.00;4.00;;;;;28.81;40.49;101041.34;5058097;27;45685;-70
2023/07/08 09:09:27;;;;;;;;;6.33;5.00;;;;;28.77;40.53;101028.69;5075321;27;46696;-71
2023/07/08 09:12:09;;;;;;;;;4.00;4.00;;;;;28.82;40.09;101025.72;5058938;28;45412;-72
2023/07/08 09:14:38;;;;;;;;;4.33;4.33;;;;;28.93;40.56;101042.63;5070594;27;45392;-75
2023/07/08 09:17:34;;;;;;;;;5.67;4.33;;;;;28.99;40.37;101046.94;5060261;27;45626;-72
2023/07/08 09:20:23;;;;;;;;;4.67;3.00;;;;;29.04;40.44;101040.28;5063852;28;46166;-70
2023/07/08 09:23:03;;;;;;;;;5.00;4.00;;;;;29.11;40.38;101040.91;5075982;27;45523;-70
2023/07/08 09:25:34;;;;;;;;;6.00;5.00;;;;;29.07;39.82;101021.84;5074670;28;45475;-71
2023/07/08 09:28:00;;;;;;;;;5.67;5.67;;;;;29.18;39.34;101041.53;5077939;27;45436;-71
2023/07/08 09:30:28;;;;;;;;;4.67;4.67;;;;;29.21;39.79;101041.41;5039850;28;45898;-72
2023/07/08 09:32:54;;;;;;;;;4.00;4.00;;;;;29.27;39.46;101030.09;5073824;28;45381;-70
2023/07/08 09:35:27;;;;;;;;;4.00;4.00;;;;;29.39;39.61;101040.50;5057189;28;45369;-71
2023/07/08 09:37:54;;;;;;;;;6.67;5.00;;;;;29.47;39.67;101034.66;5048447;28;45385;-71
2023/07/08 09:40:23;;;;;;;;;7.33;6.33;;;;;29.61;39.02;101033.09;5067982;28;46206;-70
2023/07/08 09:42:51;;;;;;;;;7.00;6.67;;;;;29.69;38.69;101039.13;5075909;27;45413;-73
2023/07/08 09:45:22;;;;;;;;;3.67;2.33;;;;;29.71;38.69;101027.03;5055951;28;45393;-71
2023/07/08 09:47:52;;;;;;;;;5.67;4.00;;;;;29.65;38.32;101013.59;5065640;28;45475;-72
2023/07/08 09:50:24;;;;;;;;;6.33;4.33;;;;;29.80;38.92;101039.50;5057779;27;46200;-73
2023/07/08 09:52:52;;;;;;;;;4.67;4.67;;;;;29.78;38.95;101030.41;5056699;28;45544;-70
2023/07/08 09:55:18;;;;;;;;;16.00;14.67;;;;;29.80;39.41;101024.81;5074312;27;45437;-72
2023/07/08 09:57:47;;;;;;;;;9.00;9.00;;;;;29.89;39.03;101028.03;5075773;27;46179;-75
2023/07/08 10:00:16;;;;;;;;;4.67;4.67;;;;;29.93;38.82;101020.53;5076332;27;45660;-75
2023/07/08 10:02:49;;;;;;;;;4.00;3.67;;;;;29.90;38.93;101020.66;5058376;27;45432;-72
2023/07/08 10:05:28;;;;;;;;;4.00;4.00;;;;;29.87;38.77;101023.56;5069815;28;45478;-72
2023/07/08 10:07:56;;;;;;;;;6.00;6.00;;;;;29.83;38.81;101003.56;5059777;28;45557;-72
2023/07/08 10:10:34;;;;;;;;;5.00;5.00;;;;;29.89;38.88;101011.50;5077040;28;46508;-71
2023/07/08 10:13:10;;;;;;;;;18.33;14.67;;;;;29.94;38.51;101003.88;5076166;27;45361;-70
2023/07/08 10:15:45;;;;;;;;;8.00;8.00;;;;;29.97;38.74;101005.59;5059110;28;45676;-72
2023/07/08 10:18:15;;;;;;;;;6.67;6.33;;;;;30.01;38.67;101009.97;5075045;27;45621;-71
2023/07/08 10:20:53;;;;;;;;;5.67;5.00;;;;;30.05;38.91;101011.63;5067250;28;45378;-70
2023/07/08 10:23:33;;;;;;;;;9.00;8.33;;;;;30.13;38.47;101014.00;5075705;27;45819;-73
2023/07/08 10:26:08;;;;;;;;;6.00;6.00;;;;;30.19;38.15;101016.41;5076100;27;45638;-71
2023/07/08 10:28:48;;;;;;;;;7.67;7.67;;;;;30.26;37.98;101009.63;5072439;28;45994;-71
2023/07/08 10:31:41;;;;;;;;;4.00;4.00;;;;;30.28;37.54;101018.69;5072377;28;46664;-73
2023/07/08 10:34:34;;;;;;;;;6.33;6.33;;;;;30.27;37.14;101016.03;5075419;27;45263;-71
2023/07/08 10:37:05;;;;;;;;;5.00;5.00;;;;;30.25;37.24;101027.13;5076135;27;45244;-74
2023/07/08 10:40:02;;;;;;;;;3.00;3.00;;;;;30.26;36.67;101020.66;5076057;28;45766;-71
2023/07/08 10:42:43;;;;;;;;;4.33;4.33;;;;;30.28;35.96;101026.09;5058604;28;48117;-71
2023/07/08 10:45:31;;;;;;;;;3.33;3.33;;;;;30.25;36.05;101029.00;5074288;27;45294;-74
2023/07/08 10:48:18;;;;;;;;;5.67;4.33;;;;;30.29;36.55;101019.56;5068142;28;45515;-70
2023/07/08 10:50:44;;;;;;;;;5.33;5.33;;;;;30.35;36.71;101019.28;5079562;27;45352;-71
2023/07/08 10:53:44;;;;;;;;;6.67;6.00;;;;;30.39;36.71;101022.78;5068825;27;45664;-72
2023/07/08 10:56:18;;;;;;;;;1.67;1.67;;;;;30.39;36.59;101018.19;5034467;28;45419;-71
2023/07/08 10:59:16;;;;;;;;;4.00;4.00;;;;;30.42;36.41;101025.38;5072677;27;45290;-70
2023/07/08 11:02:12;;;;;;;;;4.00;4.00;;;;;30.45;36.98;101030.75;5066882;27;45429;-75
2023/07/08 11:04:54;;;;;;;;;5.67;5.67;;;;;30.28;36.53;100990.25;5080292;27;45435;-70
2023/07/08 11:07:30;;;;;;;;;6.00;6.00;;;;;30.29;36.62;100983.75;5073687;27;45456;-73
2023/07/08 11:10:05;;;;;;;;;6.00;6.00;;;;;30.50;36.75;101018.50;5064194;28;45452;-73
2023/07/08 11:12:41;;;;;;;;;8.00;5.00;;;;;30.51;36.35;101016.66;5071993;27;45560;-71
2023/07/08 11:15:33;;;;;;;;;10.00;9.33;;;;;30.55;36.35;101012.72;5055605;28;46787;-75
2023/07/08 11:18:07;;;;;;;;;5.00;5.00;;;;;30.58;36.25;101015.34;5069590;28;45363;-73
2023/07/08 11:21:00;;;;;;;;;6.00;5.33;;;;;30.57;36.39;101013.53;5075065;28;45494;-73
2023/07/08 11:23:41;;;;;;;;;6.00;5.00;;;;;30.60;36.32;101006.97;5074562;27;45377;-72
2023/07/08 11:26:20;;;;;;;;;4.33;4.33;;;;;30.57;36.53;101008.03;5056415;27;47819;-73
2023/07/08 11:28:48;;;;;;;;;8.67;7.00;;;;;30.50;36.18;100993.66;5073440;27;45449;-74
2023/07/08 11:31:14;;;;;;;;;8.00;8.00;;;;;30.57;36.35;100997.00;5052767;28;45381;-72